sensor_id;sensor_type;location;lat;lon;timestamp;pressure;altitude;pressure_sealevel;temperature;humidity
25560;BME280;13450;49.374;8.584;2023-04-20T00:01:40;100607.50;;;5.76;96.23
25560;BME280;13450;49.374;8.584;2023-04-20T00:04:08;100605.97;;;5.73;97.28
25560;BME280;13450;49.374;8.584;2023-04-20T00:06:34;100599.00;;;5.72;99.36
25560;BME280;13450;49.374;8.584;2023-04-20T00:08:59;100600.13;;;5.70;99.01
25560;BME280;13450;49.374;8.584;2023-04-20T00:11:26;100594.56;;;5.63;98.89
25560;BME280;13450;49.374;8.584;2023-04-20T00:13:52;100587.44;;;5.63;99.53
25560;BME280;13450;49.374;8.584;2023-04-20T00:16:17;100588.41;;;5.62;99.52
25560;BME280;13450;49.374;8.584;2023-04-20T00:18:45;100583.56;;;5.58;99.35
25560;BME280;13450;49.374;8.584;2023-04-20T00:21:11;100573.91;;;5.57;100.00
25560;BME280;13450;49.374;8.584;2023-04-20T00:23:36;100585.81;;;5.53;100.00
25560;BME280;13450;49.374;8.584;2023-04-20T00:26:02;100579.84;;;5.50;100.00
25560;BME280;13450;49.374;8.584;2023-04-20T00:28:27;100571.34;;;5.47;100.00
25560;BME280;13450;49.374;8.584;2023-04-20T00:30:55;100573.44;;;5.43;100.00
25560;BME280;13450;49.374;8.584;2023-04-20T00:33:21;100565.78;;;5.40;100.00
25560;BME280;13450;49.374;8.584;2023-04-20T00:35:46;100563.78;;;5.24;100.00
25560;BME280;13450;49.374;8.584;2023-04-20T00:38:12;100559.88;;;5.18;100.00
25560;BME280;13450;49.374;8.584;2023-04-20T00:40:37;100559.91;;;5.08;100.00
25560;BME280;13450;49.374;8.584;2023-04-20T00:43:12;100550.72;;;5.03;100.00
25560;BME280;13450;49.374;8.584;2023-04-20T00:45:38;100544.31;;;5.05;100.00
25560;BME280;13450;49.374;8.584;2023-04-20T00:48:04;100548.91;;;5.03;100.00
25560;BME280;13450;49.374;8.584;2023-04-20T00:50:30;100546.53;;;5.00;100.00
25560;BME280;13450;49.374;8.584;2023-04-20T00:52:56;100539.72;;;4.97;100.00
25560;BME280;13450;49.374;8.584;2023-04-20T00:55:22;100539.03;;;4.95;100.00
25560;BME280;13450;49.374;8.584;2023-04-20T00:57:48;100542.81;;;4.93;100.00
25560;BME280;13450;49.374;8.584;2023-04-20T01:00:13;100524.81;;;4.87;100.00
25560;BME280;13450;49.374;8.584;2023-04-20T01:02:41;100526.25;;;4.81;100.00
25560;BME280;13450;49.374;8.584;2023-04-20T01:05:07;100538.66;;;4.80;100.00
25560;BME280;13450;49.374;8.584;2023-04-20T01:07:33;100527.53;;;4.77;100.00
25560;BME280;13450;49.374;8.584;2023-04-20T01:09:58;100525.16;;;4.74;100.00
25560;BME280;13450;49.374;8.584;2023-04-20T01:12:24;100523.47;;;4.73;100.00
25560;BME280;13450;49.374;8.584;2023-04-20T01:14:50;100514.56;;;4.64;100.00
25560;BME280;13450;49.374;8.584;2023-04-20T01:17:15;100512.88;;;4.73;100.00
25560;BME280;13450;49.374;8.584;2023-04-20T01:19:41;100510.78;;;4.66;100.00
25560;BME280;13450;49.374;8.584;2023-04-20T01:22:14;100515.94;;;4.68;100.00
25560;BME280;13450;49.374;8.584;2023-04-20T01:24:40;100513.88;;;4.62;100.00
25560;BME280;13450;49.374;8.584;2023-04-20T01:27:08;100505.94;;;4.62;100.00
25560;BME280;13450;49.374;8.584;2023-04-20T01:29:36;100506.22;;;4.58;100.00
25560;BME280;13450;49.374;8.584;2023-04-20T01:32:02;100496.75;;;4.56;100.00
25560;BME280;13450;49.374;8.584;2023-04-20T01:34:27;100486.59;;;4.51;100.00
25560;BME280;13450;49.374;8.584;2023-04-20T01:36:53;100491.19;;;4.49;100.00
25560;BME280;13450;49.374;8.584;2023-04-20T01:39:18;100494.81;;;4.48;100.00
25560;BME280;13450;49.374;8.584;2023-04-20T01:41:43;100490.78;;;4.44;100.00
25560;BME280;13450;49.374;8.584;2023-04-20T01:44:09;100479.47;;;4.42;100.00
25560;BME280;13450;49.374;8.584;2023-04-20T01:46:38;100469.47;;;4.36;100.00
25560;BME280;13450;49.374;8.584;2023-04-20T01:49:05;100473.91;;;4.35;100.00
25560;BME280;13450;49.374;8.584;2023-04-20T01:51:33;100470.03;;;4.29;100.00
25560;BME280;13450;49.374;8.584;2023-04-20T01:54:00;100468.22;;;4.30;100.00
25560;BME280;13450;49.374;8.584;2023-04-20T01:56:25;100462.75;;;4.31;100.00
25560;BME280;13450;49.374;8.584;2023-04-20T01:58:51;100462.75;;;4.31;100.00
25560;BME280;13450;49.374;8.584;2023-04-20T02:01:19;100462.22;;;4.38;100.00
25560;BME280;13450;49.374;8.584;2023-04-20T02:03:44;100453.84;;;4.32;100.00
25560;BME280;13450;49.374;8.584;2023-04-20T02:06:10;100457.88;;;4.37;100.00
25560;BME280;13450;49.374;8.584;2023-04-20T02:08:35;100457.88;;;4.37;100.00
25560;BME280;13450;49.374;8.584;2023-04-20T02:11:01;100458.56;;;4.39;100.00
25560;BME280;13450;49.374;8.584;2023-04-20T02:13:26;100465.81;;;4.37;100.00
25560;BME280;13450;49.374;8.584;2023-04-20T02:15:52;100464.69;;;4.39;100.00
25560;BME280;13450;49.374;8.584;2023-04-20T02:18:17;100459.97;;;4.43;100.00
25560;BME280;13450;49.374;8.584;2023-04-20T02:20:43;100453.53;;;4.45;100.00
25560;BME280;13450;49.374;8.584;2023-04-20T02:23:09;100448.63;;;4.51;100.00
25560;BME280;13450;49.374;8.584;2023-04-20T02:25:35;100452.53;;;4.56;100.00
25560;BME280;13450;49.374;8.584;2023-04-20T02:28:00;100451.25;;;4.61;100.00
25560;BME280;13450;49.374;8.584;2023-04-20T02:30:25;100441.03;;;4.66;100.00
25560;BME280;13450;49.374;8.584;2023-04-20T02:32:51;100443.09;;;4.72;100.00
25560;BME280;13450;49.374;8.584;2023-04-20T02:35:16;100434.88;;;4.75;100.00
25560;BME280;13450;49.374;8.584;2023-04-20T02:37:42;100436.09;;;4.81;100.00
25560;BME280;13450;49.374;8.584;2023-04-20T02:40:08;100445.25;;;4.87;100.00
25560;BME280;13450;49.374;8.584;2023-04-20T02:42:34;100434.38;;;4.90;100.00
25560;BME280;13450;49.374;8.584;2023-04-20T02:44:59;100436.88;;;4.91;100.00
25560;BME280;13450;49.374;8.584;2023-04-20T02:47:25;100435.59;;;4.95;100.00
25560;BME280;13450;49.374;8.584;2023-04-20T02:49:50;100436.13;;;4.99;100.00
25560;BME280;13450;49.374;8.584;2023-04-20T02:52:17;100435.13;;;5.00;100.00
25560;BME280;13450;49.374;8.584;2023-04-20T02:54:43;100435.69;;;5.04;100.00
25560;BME280;13450;49.374;8.584;2023-04-20T02:57:08;100420.59;;;5.04;100.00
25560;BME280;13450;49.374;8.584;2023-04-20T02:59:35;100423.56;;;5.01;100.00
25560;BME280;13450;49.374;8.584;2023-04-20T03:02:01;100421.50;;;4.95;100.00
25560;BME280;13450;49.374;8.584;2023-04-20T03:04:26;100414.81;;;4.91;100.00
25560;BME280;13450;49.374;8.584;2023-04-20T03:06:51;100407.59;;;4.83;100.00
25560;BME280;13450;49.374;8.584;2023-04-20T03:09:23;100409.97;;;4.86;100.00
25560;BME280;13450;49.374;8.584;2023-04-20T03:11:49;100410.97;;;4.85;100.00
25560;BME280;13450;49.374;8.584;2023-04-20T03:14:14;100410.41;;;4.81;100.00
25560;BME280;13450;49.374;8.584;2023-04-20T03:16:39;100399.66;;;4.83;100.00
25560;BME280;13450;49.374;8.584;2023-04-20T03:19:06;100398.38;;;4.87;100.00
25560;BME280;13450;49.374;8.584;2023-04-20T03:21:31;100395.56;;;4.89;100.00
25560;BME280;13450;49.374;8.584;2023-04-20T03:23:57;100397.94;;;4.92;100.00
25560;BME280;13450;49.374;8.584;2023-04-20T03:26:23;100389.97;;;4.92;100.00
25560;BME280;13450;49.374;8.584;2023-04-20T03:28:49;100393.75;;;4.89;100.00
25560;BME280;13450;49.374;8.584;2023-04-20T03:31:15;100391.66;;;4.93;100.00
25560;BME280;13450;49.374;8.584;2023-04-20T03:33:40;100393.41;;;5.02;100.00
25560;BME280;13450;49.374;8.584;2023-04-20T03:36:10;100394.53;;;5.00;100.00
25560;BME280;13450;49.374;8.584;2023-04-20T03:38:35;100389.09;;;5.01;100.00
25560;BME280;13450;49.374;8.584;2023-04-20T03:41:01;100386.88;;;4.96;100.00
25560;BME280;13450;49.374;8.584;2023-04-20T03:43:26;100389.38;;;4.98;100.00
25560;BME280;13450;49.374;8.584;2023-04-20T03:45:51;100385.34;;;4.94;100.00
25560;BME280;13450;49.374;8.584;2023-04-20T03:48:17;100390.56;;;4.86;100.00
25560;BME280;13450;49.374;8.584;2023-04-20T03:50:43;100382.47;;;4.87;100.00
25560;BME280;13450;49.374;8.584;2023-04-20T03:53:08;100383.88;;;4.81;100.00
25560;BME280;13450;49.374;8.584;2023-04-20T03:55:33;100377.19;;;4.77;100.00
25560;BME280;13450;49.374;8.584;2023-04-20T03:57:59;100384.47;;;4.75;100.00
25560;BME280;13450;49.374;8.584;2023-04-20T04:00:24;100377.41;;;4.66;100.00
25560;BME280;13450;49.374;8.584;2023-04-20T04:02:49;100381.53;;;4.50;100.00
25560;BME280;13450;49.374;8.584;2023-04-20T04:05:15;100377.41;;;4.38;100.00
25560;BME280;13450;49.374;8.584;2023-04-20T04:07:43;100376.59;;;4.27;100.00
25560;BME280;13450;49.374;8.584;2023-04-20T04:10:09;100375.81;;;4.17;100.00
25560;BME280;13450;49.374;8.584;2023-04-20T04:12:34;100372.38;;;4.07;100.00
25560;BME280;13450;49.374;8.584;2023-04-20T04:15:00;100380.88;;;4.00;100.00
25560;BME280;13450;49.374;8.584;2023-04-20T04:17:25;100389.66;;;3.91;100.00
25560;BME280;13450;49.374;8.584;2023-04-20T04:19:51;100377.56;;;3.88;100.00
25560;BME280;13450;49.374;8.584;2023-04-20T04:22:19;100377.00;;;3.85;100.00
25560;BME280;13450;49.374;8.584;2023-04-20T04:24:44;100369.06;;;3.85;100.00
25560;BME280;13450;49.374;8.584;2023-04-20T04:27:09;100374.78;;;3.90;100.00
25560;BME280;13450;49.374;8.584;2023-04-20T04:29:38;100371.00;;;3.92;100.00
25560;BME280;13450;49.374;8.584;2023-04-20T04:32:06;100375.03;;;3.87;100.00
25560;BME280;13450;49.374;8.584;2023-04-20T04:34:32;100374.78;;;3.90;100.00
25560;BME280;13450;49.374;8.584;2023-04-20T04:36:58;100377.56;;;3.88;100.00
25560;BME280;13450;49.374;8.584;2023-04-20T04:39:28;100373.38;;;3.86;100.00
25560;BME280;13450;49.374;8.584;2023-04-20T04:41:54;100371.72;;;3.85;100.00
25560;BME280;13450;49.374;8.584;2023-04-20T04:44:20;100375.63;;;3.90;100.00
25560;BME280;13450;49.374;8.584;2023-04-20T04:46:46;100371.69;;;3.95;100.00
25560;BME280;13450;49.374;8.584;2023-04-20T04:49:13;100371.69;;;3.95;100.00
25560;BME280;13450;49.374;8.584;2023-04-20T04:51:39;100365.28;;;3.97;100.00
25560;BME280;13450;49.374;8.584;2023-04-20T04:54:04;100356.91;;;4.02;100.00
25560;BME280;13450;49.374;8.584;2023-04-20T04:56:31;100362.44;;;4.09;100.00
25560;BME280;13450;49.374;8.584;2023-04-20T04:58:57;100357.28;;;4.17;100.00
25560;BME280;13450;49.374;8.584;2023-04-20T05:01:22;100353.06;;;4.24;100.00
25560;BME280;13450;49.374;8.584;2023-04-20T05:03:50;100356.78;;;4.31;100.00
25560;BME280;13450;49.374;8.584;2023-04-20T05:06:15;100354.38;;;4.38;100.00
25560;BME280;13450;49.374;8.584;2023-04-20T05:08:40;100358.56;;;4.41;100.00
25560;BME280;13450;49.374;8.584;2023-04-20T05:11:06;100358.13;;;4.45;100.00
25560;BME280;13450;49.374;8.584;2023-04-20T05:13:31;100361.16;;;4.51;100.00
25560;BME280;13450;49.374;8.584;2023-04-20T05:15:56;100363.06;;;4.58;100.00
25560;BME280;13450;49.374;8.584;2023-04-20T05:18:25;100372.78;;;4.68;100.00
25560;BME280;13450;49.374;8.584;2023-04-20T05:20:50;100376.28;;;4.68;100.00
25560;BME280;13450;49.374;8.584;2023-04-20T05:23:15;100374.16;;;4.72;100.00
25560;BME280;13450;49.374;8.584;2023-04-20T05:25:40;100376.81;;;4.72;100.00
25560;BME280;13450;49.374;8.584;2023-04-20T05:28:06;100373.88;;;4.75;100.00
25560;BME280;13450;49.374;8.584;2023-04-20T05:30:31;100375.78;;;4.83;100.00
25560;BME280;13450;49.374;8.584;2023-04-20T05:32:57;100374.06;;;4.92;100.00
25560;BME280;13450;49.374;8.584;2023-04-20T05:35:22;100371.41;;;4.92;100.00
25560;BME280;13450;49.374;8.584;2023-04-20T05:37:47;100382.03;;;4.92;100.00
25560;BME280;13450;49.374;8.584;2023-04-20T05:40:13;100376.16;;;4.88;100.00
25560;BME280;13450;49.374;8.584;2023-04-20T05:42:39;100381.03;;;4.93;100.00
25560;BME280;13450;49.374;8.584;2023-04-20T05:45:06;100391.03;;;4.99;100.00
25560;BME280;13450;49.374;8.584;2023-04-20T05:47:32;100387.09;;;5.03;100.00
25560;BME280;13450;49.374;8.584;2023-04-20T05:49:57;100388.47;;;5.07;100.00
25560;BME280;13450;49.374;8.584;2023-04-20T05:52:22;100394.25;;;5.21;100.00
25560;BME280;13450;49.374;8.584;2023-04-20T05:54:48;100389.09;;;5.38;100.00
25560;BME280;13450;49.374;8.584;2023-04-20T05:57:13;100394.00;;;5.50;100.00
25560;BME280;13450;49.374;8.584;2023-04-20T05:59:39;100384.06;;;5.71;100.00
25560;BME280;13450;49.374;8.584;2023-04-20T06:02:04;100394.31;;;5.92;100.00
25560;BME280;13450;49.374;8.584;2023-04-20T06:04:30;100384.59;;;6.01;100.00
25560;BME280;13450;49.374;8.584;2023-04-20T06:06:55;100381.69;;;6.12;100.00
25560;BME280;13450;49.374;8.584;2023-04-20T06:09:24;100381.44;;;6.24;100.00
25560;BME280;13450;49.374;8.584;2023-04-20T06:11:50;100382.09;;;6.26;100.00
25560;BME280;13450;49.374;8.584;2023-04-20T06:14:15;100383.81;;;6.35;100.00
25560;BME280;13450;49.374;8.584;2023-04-20T06:16:42;100389.47;;;6.40;100.00
25560;BME280;13450;49.374;8.584;2023-04-20T06:19:08;100377.91;;;6.50;100.00
25560;BME280;13450;49.374;8.584;2023-04-20T06:21:34;100379.63;;;6.67;100.00
25560;BME280;13450;49.374;8.584;2023-04-20T06:24:00;100378.69;;;6.77;100.00
25560;BME280;13450;49.374;8.584;2023-04-20T06:26:26;100374.16;;;6.77;100.00
25560;BME280;13450;49.374;8.584;2023-04-20T06:28:59;100384.19;;;6.92;100.00
25560;BME280;13450;49.374;8.584;2023-04-20T06:31:24;100382.69;;;6.89;100.00
25560;BME280;13450;49.374;8.584;2023-04-20T06:33:52;100386.22;;;6.98;100.00
25560;BME280;13450;49.374;8.584;2023-04-20T06:36:18;100383.25;;;7.18;100.00
25560;BME280;13450;49.374;8.584;2023-04-20T06:38:43;100385.94;;;7.35;100.00
25560;BME280;13450;49.374;8.584;2023-04-20T06:41:09;100389.09;;;7.38;100.00
25560;BME280;13450;49.374;8.584;2023-04-20T06:43:34;100384.09;;;7.43;100.00
25560;BME280;13450;49.374;8.584;2023-04-20T06:46:00;100384.44;;;7.57;100.00
25560;BME280;13450;49.374;8.584;2023-04-20T06:48:25;100374.78;;;7.72;100.00
25560;BME280;13450;49.374;8.584;2023-04-20T06:50:51;100381.09;;;7.88;100.00
25560;BME280;13450;49.374;8.584;2023-04-20T06:53:17;100378.41;;;7.96;100.00
25560;BME280;13450;49.374;8.584;2023-04-20T06:55:42;100377.41;;;7.97;100.00
25560;BME280;13450;49.374;8.584;2023-04-20T06:58:07;100382.09;;;7.95;100.00
25560;BME280;13450;49.374;8.584;2023-04-20T07:00:33;100370.41;;;8.05;100.00
25560;BME280;13450;49.374;8.584;2023-04-20T07:02:58;100369.38;;;8.14;100.00
25560;BME280;13450;49.374;8.584;2023-04-20T07:05:23;100368.53;;;8.14;100.00
25560;BME280;13450;49.374;8.584;2023-04-20T07:07:55;100367.41;;;8.08;100.00
25560;BME280;13450;49.374;8.584;2023-04-20T07:10:23;100363.19;;;8.14;100.00
25560;BME280;13450;49.374;8.584;2023-04-20T07:12:48;100359.03;;;8.19;100.00
25560;BME280;13450;49.374;8.584;2023-04-20T07:15:14;100356.22;;;8.13;100.00
25560;BME280;13450;49.374;8.584;2023-04-20T07:17:39;100351.41;;;8.08;100.00
25560;BME280;13450;49.374;8.584;2023-04-20T07:20:05;100348.75;;;8.08;100.00
25560;BME280;13450;49.374;8.584;2023-04-20T07:22:36;100355.38;;;8.12;100.00
25560;BME280;13450;49.374;8.584;2023-04-20T07:25:03;100356.03;;;8.22;100.00
25560;BME280;13450;49.374;8.584;2023-04-20T07:27:32;100342.69;;;8.31;100.00
25560;BME280;13450;49.374;8.584;2023-04-20T07:29:59;100353.66;;;8.36;100.00
25560;BME280;13450;49.374;8.584;2023-04-20T07:32:24;100349.63;;;8.40;100.00
25560;BME280;13450;49.374;8.584;2023-04-20T07:34:49;100357.09;;;8.53;100.00
25560;BME280;13450;49.374;8.584;2023-04-20T07:37:18;100355.25;;;8.62;100.00
25560;BME280;13450;49.374;8.584;2023-04-20T07:39:45;100351.88;;;8.68;100.00
25560;BME280;13450;49.374;8.584;2023-04-20T07:42:13;100351.81;;;8.76;100.00
25560;BME280;13450;49.374;8.584;2023-04-20T07:44:39;100353.16;;;8.81;100.00
25560;BME280;13450;49.374;8.584;2023-04-20T07:47:04;100355.41;;;8.92;100.00
25560;BME280;13450;49.374;8.584;2023-04-20T07:49:29;100348.75;;;8.88;100.00
25560;BME280;13450;49.374;8.584;2023-04-20T07:51:55;100350.47;;;8.81;100.00
25560;BME280;13450;49.374;8.584;2023-04-20T07:54:20;100347.75;;;8.89;100.00
25560;BME280;13450;49.374;8.584;2023-04-20T07:56:46;100344.50;;;9.02;100.00
25560;BME280;13450;49.374;8.584;2023-04-20T07:59:11;100348.72;;;9.20;100.00
25560;BME280;13450;49.374;8.584;2023-04-20T08:01:37;100339.63;;;9.52;100.00
25560;BME280;13450;49.374;8.584;2023-04-20T08:04:02;100344.97;;;9.67;99.00
25560;BME280;13450;49.374;8.584;2023-04-20T08:06:27;100339.28;;;9.86;97.41
25560;BME280;13450;49.374;8.584;2023-04-20T08:08:55;100336.19;;;9.97;95.50
25560;BME280;13450;49.374;8.584;2023-04-20T08:11:20;100335.63;;;10.17;92.42
25560;BME280;13450;49.374;8.584;2023-04-20T08:13:51;100331.22;;;10.24;94.60
25560;BME280;13450;49.374;8.584;2023-04-20T08:16:19;100331.75;;;10.34;93.55
25560;BME280;13450;49.374;8.584;2023-04-20T08:18:47;100328.97;;;10.43;92.61
25560;BME280;13450;49.374;8.584;2023-04-20T08:21:13;100330.03;;;10.64;90.20
25560;BME280;13450;49.374;8.584;2023-04-20T08:23:41;100321.03;;;10.86;90.94
25560;BME280;13450;49.374;8.584;2023-04-20T08:26:06;100324.38;;;10.89;88.00
25560;BME280;13450;49.374;8.584;2023-04-20T08:28:31;100325.78;;;11.06;86.34
25560;BME280;13450;49.374;8.584;2023-04-20T08:30:57;100326.63;;;11.35;83.69
25560;BME280;13450;49.374;8.584;2023-04-20T08:33:22;100321.78;;;11.46;82.98
25560;BME280;13450;49.374;8.584;2023-04-20T08:35:49;100323.41;;;11.40;83.61
25560;BME280;13450;49.374;8.584;2023-04-20T08:38:14;100315.59;;;11.45;84.33
25560;BME280;13450;49.374;8.584;2023-04-20T08:40:40;100316.16;;;11.41;83.11
25560;BME280;13450;49.374;8.584;2023-04-20T08:43:05;100317.19;;;11.40;83.19
25560;BME280;13450;49.374;8.584;2023-04-20T08:45:31;100316.13;;;11.62;80.89
25560;BME280;13450;49.374;8.584;2023-04-20T08:48:03;100315.63;;;11.74;81.21
25560;BME280;13450;49.374;8.584;2023-04-20T08:50:30;100309.44;;;11.80;81.85
25560;BME280;13450;49.374;8.584;2023-04-20T08:52:56;100312.78;;;11.82;83.25
25560;BME280;13450;49.374;8.584;2023-04-20T08:55:21;100306.81;;;11.87;81.77
25560;BME280;13450;49.374;8.584;2023-04-20T08:57:47;100301.94;;;12.04;78.96
25560;BME280;13450;49.374;8.584;2023-04-20T09:00:14;100307.31;;;12.04;80.10
25560;BME280;13450;49.374;8.584;2023-04-20T09:02:51;100303.19;;;12.01;78.50
25560;BME280;13450;49.374;8.584;2023-04-20T09:05:24;100297.75;;;11.88;78.45
25560;BME280;13450;49.374;8.584;2023-04-20T09:07:51;100308.59;;;12.08;79.32
25560;BME280;13450;49.374;8.584;2023-04-20T09:10:24;100296.47;;;12.12;78.35
25560;BME280;13450;49.374;8.584;2023-04-20T09:12:50;100291.78;;;12.21;77.51
25560;BME280;13450;49.374;8.584;2023-04-20T09:15:26;100293.78;;;12.12;75.82
25560;BME280;13450;49.374;8.584;2023-04-20T09:17:52;100293.47;;;12.36;73.18
25560;BME280;13450;49.374;8.584;2023-04-20T09:20:30;100284.88;;;12.67;75.32
25560;BME280;13450;49.374;8.584;2023-04-20T09:22:56;100281.94;;;12.49;73.55
25560;BME280;13450;49.374;8.584;2023-04-20T09:25:25;100284.63;;;12.49;74.40
25560;BME280;13450;49.374;8.584;2023-04-20T09:28:00;100279.13;;;12.77;73.75
25560;BME280;13450;49.374;8.584;2023-04-20T09:30:36;100278.34;;;12.90;73.57
25560;BME280;13450;49.374;8.584;2023-04-20T09:33:02;100280.00;;;12.91;73.55
25560;BME280;13450;49.374;8.584;2023-04-20T09:35:28;100284.09;;;12.74;72.90
25560;BME280;13450;49.374;8.584;2023-04-20T09:37:53;100272.13;;;12.83;71.00
25560;BME280;13450;49.374;8.584;2023-04-20T09:40:19;100277.91;;;12.80;69.55
25560;BME280;13450;49.374;8.584;2023-04-20T09:42:47;100274.63;;;12.98;71.65
25560;BME280;13450;49.374;8.584;2023-04-20T09:45:16;100273.78;;;13.04;71.04
25560;BME280;13450;49.374;8.584;2023-04-20T09:47:42;100274.63;;;13.05;71.22
25560;BME280;13450;49.374;8.584;2023-04-20T09:50:11;100274.22;;;13.15;71.87
25560;BME280;13450;49.374;8.584;2023-04-20T09:52:37;100270.50;;;13.02;72.74
25560;BME280;13450;49.374;8.584;2023-04-20T09:55:04;100269.25;;;13.05;71.78
25560;BME280;13450;49.374;8.584;2023-04-20T09:57:31;100271.53;;;13.35;69.91
25560;BME280;13450;49.374;8.584;2023-04-20T09:59:57;100263.25;;;13.57;65.95
25560;BME280;13450;49.374;8.584;2023-04-20T10:02:24;100264.56;;;14.07;65.03
25560;BME280;13450;49.374;8.584;2023-04-20T10:04:56;100254.25;;;14.10;63.98
25560;BME280;13450;49.374;8.584;2023-04-20T10:07:27;100257.72;;;14.11;61.99
25560;BME280;13450;49.374;8.584;2023-04-20T10:10:03;100257.91;;;14.16;61.34
25560;BME280;13450;49.374;8.584;2023-04-20T10:12:29;100253.84;;;14.00;59.12
25560;BME280;13450;49.374;8.584;2023-04-20T10:14:55;100245.50;;;14.15;62.00
25560;BME280;13450;49.374;8.584;2023-04-20T10:17:31;100242.94;;;14.34;61.76
25560;BME280;13450;49.374;8.584;2023-04-20T10:19:58;100241.72;;;14.30;62.79
25560;BME280;13450;49.374;8.584;2023-04-20T10:22:31;100236.78;;;14.27;64.03
25560;BME280;13450;49.374;8.584;2023-04-20T10:24:59;100238.81;;;14.31;62.23
25560;BME280;13450;49.374;8.584;2023-04-20T10:27:25;100230.84;;;14.50;62.26
25560;BME280;13450;49.374;8.584;2023-04-20T10:29:50;100222.47;;;14.97;62.29
25560;BME280;13450;49.374;8.584;2023-04-20T10:32:27;100226.25;;;15.15;58.74
25560;BME280;13450;49.374;8.584;2023-04-20T10:35:04;100227.34;;;15.33;58.36
25560;BME280;13450;49.374;8.584;2023-04-20T10:37:33;100218.97;;;15.41;56.68
25560;BME280;13450;49.374;8.584;2023-04-20T10:39:59;100217.69;;;15.25;55.04
25560;BME280;13450;49.374;8.584;2023-04-20T10:42:25;100213.28;;;15.30;58.20
25560;BME280;13450;49.374;8.584;2023-04-20T10:44:52;100211.88;;;15.02;56.78
25560;BME280;13450;49.374;8.584;2023-04-20T10:47:26;100209.28;;;14.89;56.48
25560;BME280;13450;49.374;8.584;2023-04-20T10:49:51;100207.34;;;14.96;57.54
25560;BME280;13450;49.374;8.584;2023-04-20T10:52:31;100210.47;;;14.93;58.30
25560;BME280;13450;49.374;8.584;2023-04-20T10:54:56;100212.94;;;15.20;55.84
25560;BME280;13450;49.374;8.584;2023-04-20T10:57:21;100197.53;;;15.27;54.38
25560;BME280;13450;49.374;8.584;2023-04-20T10:59:46;100198.94;;;14.86;54.12
25560;BME280;13450;49.374;8.584;2023-04-20T11:02:14;100194.47;;;14.66;57.23
25560;BME280;13450;49.374;8.584;2023-04-20T11:04:42;100191.97;;;14.39;57.96
25560;BME280;13450;49.374;8.584;2023-04-20T11:07:09;100183.63;;;14.15;59.16
25560;BME280;13450;49.374;8.584;2023-04-20T11:09:34;100181.25;;;13.93;60.46
25560;BME280;13450;49.374;8.584;2023-04-20T11:12:06;100184.03;;;13.66;59.45
25560;BME280;13450;49.374;8.584;2023-04-20T11:14:34;100191.91;;;13.61;59.85
25560;BME280;13450;49.374;8.584;2023-04-20T11:17:01;100195.25;;;13.56;62.06
25560;BME280;13450;49.374;8.584;2023-04-20T11:19:30;100209.53;;;13.16;63.79
25560;BME280;13450;49.374;8.584;2023-04-20T11:21:57;100189.44;;;12.31;67.59
25560;BME280;13450;49.374;8.584;2023-04-20T11:24:24;100184.84;;;12.11;68.10
25560;BME280;13450;49.374;8.584;2023-04-20T11:26:50;100178.81;;;12.02;66.78
25560;BME280;13450;49.374;8.584;2023-04-20T11:29:31;100192.53;;;11.79;78.11
25560;BME280;13450;49.374;8.584;2023-04-20T11:31:58;100182.53;;;11.59;90.36
25560;BME280;13450;49.374;8.584;2023-04-20T11:34:25;100178.25;;;11.72;85.89
25560;BME280;13450;49.374;8.584;2023-04-20T11:36:50;100179.81;;;12.01;75.35
25560;BME280;13450;49.374;8.584;2023-04-20T11:39:26;100181.84;;;12.41;72.90
25560;BME280;13450;49.374;8.584;2023-04-20T11:41:55;100168.44;;;12.68;72.78
25560;BME280;13450;49.374;8.584;2023-04-20T11:44:23;100170.09;;;13.03;71.70
25560;BME280;13450;49.374;8.584;2023-04-20T11:46:51;100166.91;;;13.60;69.43
25560;BME280;13450;49.374;8.584;2023-04-20T11:49:22;100166.75;;;15.35;60.28
25560;BME280;13450;49.374;8.584;2023-04-20T11:51:48;100160.91;;;16.56;54.74
25560;BME280;13450;49.374;8.584;2023-04-20T11:54:14;100158.56;;;17.55;52.41
25560;BME280;13450;49.374;8.584;2023-04-20T11:56:40;100166.13;;;18.23;49.06
25560;BME280;13450;49.374;8.584;2023-04-20T11:59:09;100154.75;;;18.55;44.85
25560;BME280;13450;49.374;8.584;2023-04-20T12:01:35;100166.09;;;17.94;46.55
25560;BME280;13450;49.374;8.584;2023-04-20T12:04:02;100184.22;;;16.07;55.09
25560;BME280;13450;49.374;8.584;2023-04-20T12:06:28;100183.88;;;14.07;65.06
25560;BME280;13450;49.374;8.584;2023-04-20T12:08:54;100192.41;;;12.77;74.28
25560;BME280;13450;49.374;8.584;2023-04-20T12:11:20;100204.53;;;11.90;88.86
25560;BME280;13450;49.374;8.584;2023-04-20T12:13:46;100219.53;;;11.42;100.00
25560;BME280;13450;49.374;8.584;2023-04-20T12:16:11;100218.44;;;11.01;100.00
25560;BME280;13450;49.374;8.584;2023-04-20T12:18:37;100215.25;;;10.69;100.00
25560;BME280;13450;49.374;8.584;2023-04-20T12:21:02;100204.41;;;10.55;100.00
25560;BME280;13450;49.374;8.584;2023-04-20T12:23:28;100203.41;;;10.56;100.00
25560;BME280;13450;49.374;8.584;2023-04-20T12:25:53;100198.81;;;10.72;100.00
25560;BME280;13450;49.374;8.584;2023-04-20T12:28:18;100199.94;;;10.84;100.00
25560;BME280;13450;49.374;8.584;2023-04-20T12:30:43;100203.97;;;10.95;100.00
25560;BME280;13450;49.374;8.584;2023-04-20T12:33:10;100191.34;;;11.18;100.00
25560;BME280;13450;49.374;8.584;2023-04-20T12:35:35;100189.47;;;11.47;100.00
25560;BME280;13450;49.374;8.584;2023-04-20T12:38:00;100195.59;;;11.76;100.00
25560;BME280;13450;49.374;8.584;2023-04-20T12:40:28;100193.16;;;11.81;100.00
25560;BME280;13450;49.374;8.584;2023-04-20T12:42:53;100188.00;;;11.86;100.00
25560;BME280;13450;49.374;8.584;2023-04-20T12:45:18;100192.88;;;12.11;100.00
25560;BME280;13450;49.374;8.584;2023-04-20T12:47:44;100182.88;;;12.54;100.00